sensor_id;sensor_type;location;lat;lon;timestamp;P1;durP1;ratioP1;P2;durP2;ratioP2
32094;SDS011;18608;53.688;10.748;2022-12-07T00:01:15;20.77;;;11.90;;
32094;SDS011;18608;53.688;10.748;2022-12-07T00:03:44;19.60;;;12.10;;
32094;SDS011;18608;53.688;10.748;2022-12-07T00:06:11;21.13;;;12.83;;
32094;SDS011;18608;53.688;10.748;2022-12-07T00:08:38;19.83;;;12.97;;
32094;SDS011;18608;53.688;10.748;2022-12-07T00:11:25;21.53;;;13.10;;
32094;SDS011;18608;53.688;10.748;2022-12-07T00:13:51;29.33;;;14.03;;
32094;SDS011;18608;53.688;10.748;2022-12-07T00:16:19;23.40;;;14.23;;
32094;SDS011;18608;53.688;10.748;2022-12-07T00:18:46;26.33;;;14.13;;
32094;SDS011;18608;53.688;10.748;2022-12-07T00:23:40;33.67;;;15.33;;
32094;SDS011;18608;53.688;10.748;2022-12-07T00:26:09;31.40;;;16.00;;
32094;SDS011;18608;53.688;10.748;2022-12-07T00:28:36;30.73;;;16.10;;
32094;SDS011;18608;53.688;10.748;2022-12-07T00:31:06;31.13;;;16.77;;
32094;SDS011;18608;53.688;10.748;2022-12-07T00:33:34;28.97;;;16.10;;
32094;SDS011;18608;53.688;10.748;2022-12-07T00:36:00;34.07;;;16.57;;
32094;SDS011;18608;53.688;10.748;2022-12-07T00:38:28;33.97;;;17.00;;
32094;SDS011;18608;53.688;10.748;2022-12-07T00:40:56;24.33;;;14.53;;
32094;SDS011;18608;53.688;10.748;2022-12-07T00:43:26;29.20;;;15.67;;
32094;SDS011;18608;53.688;10.748;2022-12-07T00:45:52;31.90;;;15.93;;
32094;SDS011;18608;53.688;10.748;2022-12-07T00:48:19;29.90;;;16.43;;
32094;SDS011;18608;53.688;10.748;2022-12-07T00:50:45;28.87;;;16.37;;
32094;SDS011;18608;53.688;10.748;2022-12-07T00:53:10;32.33;;;17.50;;
32094;SDS011;18608;53.688;10.748;2022-12-07T00:55:36;41.33;;;21.60;;
32094;SDS011;18608;53.688;10.748;2022-12-07T00:58:02;37.70;;;18.80;;
32094;SDS011;18608;53.688;10.748;2022-12-07T01:00:28;38.00;;;19.30;;
32094;SDS011;18608;53.688;10.748;2022-12-07T01:02:54;38.70;;;18.37;;
32094;SDS011;18608;53.688;10.748;2022-12-07T01:05:20;36.40;;;18.90;;
32094;SDS011;18608;53.688;10.748;2022-12-07T01:07:45;42.70;;;21.30;;
32094;SDS011;18608;53.688;10.748;2022-12-07T01:10:12;40.53;;;21.67;;
32094;SDS011;18608;53.688;10.748;2022-12-07T01:12:41;43.73;;;19.07;;
32094;SDS011;18608;53.688;10.748;2022-12-07T01:15:06;38.43;;;19.40;;
32094;SDS011;18608;53.688;10.748;2022-12-07T01:17:33;38.57;;;20.60;;
32094;SDS011;18608;53.688;10.748;2022-12-07T01:19:59;39.23;;;20.60;;
32094;SDS011;18608;53.688;10.748;2022-12-07T01:22:24;52.30;;;24.97;;
32094;SDS011;18608;53.688;10.748;2022-12-07T01:24:50;37.43;;;20.90;;
32094;SDS011;18608;53.688;10.748;2022-12-07T01:27:16;45.33;;;22.07;;
32094;SDS011;18608;53.688;10.748;2022-12-07T01:29:41;40.40;;;21.27;;
32094;SDS011;18608;53.688;10.748;2022-12-07T01:32:07;38.57;;;22.17;;
32094;SDS011;18608;53.688;10.748;2022-12-07T01:34:32;42.27;;;22.57;;
32094;SDS011;18608;53.688;10.748;2022-12-07T01:36:58;41.90;;;21.50;;
32094;SDS011;18608;53.688;10.748;2022-12-07T01:39:24;45.30;;;20.80;;
32094;SDS011;18608;53.688;10.748;2022-12-07T01:41:49;46.30;;;21.33;;
32094;SDS011;18608;53.688;10.748;2022-12-07T01:46:42;37.40;;;21.27;;
32094;SDS011;18608;53.688;10.748;2022-12-07T01:49:17;42.07;;;22.63;;
32094;SDS011;18608;53.688;10.748;2022-12-07T01:51:44;42.00;;;20.53;;
32094;SDS011;18608;53.688;10.748;2022-12-07T01:54:12;38.50;;;20.17;;
32094;SDS011;18608;53.688;10.748;2022-12-07T01:56:41;34.30;;;19.30;;
32094;SDS011;18608;53.688;10.748;2022-12-07T01:59:14;37.27;;;19.13;;
32094;SDS011;18608;53.688;10.748;2022-12-07T02:01:41;36.70;;;19.70;;
32094;SDS011;18608;53.688;10.748;2022-12-07T02:04:07;35.57;;;20.57;;
32094;SDS011;18608;53.688;10.748;2022-12-07T02:06:33;34.60;;;19.27;;
32094;SDS011;18608;53.688;10.748;2022-12-07T02:09:01;42.80;;;21.63;;
32094;SDS011;18608;53.688;10.748;2022-12-07T02:11:27;32.67;;;18.70;;
32094;SDS011;18608;53.688;10.748;2022-12-07T02:13:53;38.77;;;19.27;;
32094;SDS011;18608;53.688;10.748;2022-12-07T02:27:23;39.10;;;19.60;;
32094;SDS011;18608;53.688;10.748;2022-12-07T02:30:12;41.57;;;20.77;;
32094;SDS011;18608;53.688;10.748;2022-12-07T02:35:25;32.77;;;19.97;;
32094;SDS011;18608;53.688;10.748;2022-12-07T02:38:25;35.20;;;18.80;;
32094;SDS011;18608;53.688;10.748;2022-12-07T02:43:54;34.60;;;19.17;;
32094;SDS011;18608;53.688;10.748;2022-12-07T02:46:23;35.67;;;17.00;;
32094;SDS011;18608;53.688;10.748;2022-12-07T02:48:53;31.90;;;17.93;;
32094;SDS011;18608;53.688;10.748;2022-12-07T02:51:20;35.40;;;15.93;;
32094;SDS011;18608;53.688;10.748;2022-12-07T02:53:47;28.70;;;14.47;;
32094;SDS011;18608;53.688;10.748;2022-12-07T02:56:27;21.17;;;13.00;;
32094;SDS011;18608;53.688;10.748;2022-12-07T03:04:37;22.63;;;12.37;;
32094;SDS011;18608;53.688;10.748;2022-12-07T03:07:26;15.90;;;10.27;;
32094;SDS011;18608;53.688;10.748;2022-12-07T03:10:03;18.67;;;10.53;;
32094;SDS011;18608;53.688;10.748;2022-12-07T03:15:41;11.87;;;7.90;;
32094;SDS011;18608;53.688;10.748;2022-12-07T03:18:09;13.77;;;7.53;;
32094;SDS011;18608;53.688;10.748;2022-12-07T03:20:37;17.43;;;9.40;;
32094;SDS011;18608;53.688;10.748;2022-12-07T03:23:06;13.30;;;8.60;;
32094;SDS011;18608;53.688;10.748;2022-12-07T03:25:40;17.40;;;9.47;;
32094;SDS011;18608;53.688;10.748;2022-12-07T03:28:10;17.20;;;9.10;;
32094;SDS011;18608;53.688;10.748;2022-12-07T03:30:41;15.43;;;9.40;;
32094;SDS011;18608;53.688;10.748;2022-12-07T03:35:43;16.50;;;10.60;;
32094;SDS011;18608;53.688;10.748;2022-12-07T03:40:52;21.90;;;9.03;;
32094;SDS011;18608;53.688;10.748;2022-12-07T03:43:25;16.47;;;9.60;;
32094;SDS011;18608;53.688;10.748;2022-12-07T03:45:57;16.50;;;10.40;;
32094;SDS011;18608;53.688;10.748;2022-12-07T03:48:46;11.83;;;8.10;;
32094;SDS011;18608;53.688;10.748;2022-12-07T03:54:11;15.80;;;10.77;;
32094;SDS011;18608;53.688;10.748;2022-12-07T03:56:42;14.83;;;7.70;;
32094;SDS011;18608;53.688;10.748;2022-12-07T03:59:09;12.80;;;7.80;;
32094;SDS011;18608;53.688;10.748;2022-12-07T04:01:37;15.00;;;7.80;;
32094;SDS011;18608;53.688;10.748;2022-12-07T04:04:03;11.47;;;8.17;;
32094;SDS011;18608;53.688;10.748;2022-12-07T04:06:28;12.07;;;7.87;;
32094;SDS011;18608;53.688;10.748;2022-12-07T04:08:54;19.40;;;8.07;;
32094;SDS011;18608;53.688;10.748;2022-12-07T04:11:20;11.67;;;7.30;;
32094;SDS011;18608;53.688;10.748;2022-12-07T04:13:45;10.10;;;6.93;;
32094;SDS011;18608;53.688;10.748;2022-12-07T04:16:30;10.37;;;7.60;;
32094;SDS011;18608;53.688;10.748;2022-12-07T04:18:55;6.80;;;6.00;;
32094;SDS011;18608;53.688;10.748;2022-12-07T04:21:21;10.80;;;6.60;;
32094;SDS011;18608;53.688;10.748;2022-12-07T04:23:47;6.70;;;5.83;;
32094;SDS011;18608;53.688;10.748;2022-12-07T04:26:12;10.80;;;7.40;;
32094;SDS011;18608;53.688;10.748;2022-12-07T04:28:38;11.20;;;7.30;;
32094;SDS011;18608;53.688;10.748;2022-12-07T04:31:03;13.90;;;7.13;;
32094;SDS011;18608;53.688;10.748;2022-12-07T04:33:29;9.60;;;6.00;;
32094;SDS011;18608;53.688;10.748;2022-12-07T04:35:54;6.20;;;4.93;;
32094;SDS011;18608;53.688;10.748;2022-12-07T04:38:20;6.33;;;4.80;;
32094;SDS011;18608;53.688;10.748;2022-12-07T04:40:46;6.70;;;4.90;;
32094;SDS011;18608;53.688;10.748;2022-12-07T04:43:11;4.13;;;3.50;;
32094;SDS011;18608;53.688;10.748;2022-12-07T04:45:37;5.10;;;3.80;;
32094;SDS011;18608;53.688;10.748;2022-12-07T04:48:03;8.17;;;4.57;;
32094;SDS011;18608;53.688;10.748;2022-12-07T04:50:28;5.37;;;4.50;;
32094;SDS011;18608;53.688;10.748;2022-12-07T04:52:54;6.47;;;4.93;;
32094;SDS011;18608;53.688;10.748;2022-12-07T04:55:19;6.50;;;5.10;;
32094;SDS011;18608;53.688;10.748;2022-12-07T04:57:45;5.70;;;4.10;;
32094;SDS011;18608;53.688;10.748;2022-12-07T05:00:11;4.90;;;3.80;;
32094;SDS011;18608;53.688;10.748;2022-12-07T05:02:36;4.17;;;3.80;;
32094;SDS011;18608;53.688;10.748;2022-12-07T05:05:02;4.90;;;3.50;;
32094;SDS011;18608;53.688;10.748;2022-12-07T05:07:28;12.50;;;5.10;;
32094;SDS011;18608;53.688;10.748;2022-12-07T05:09:53;5.37;;;4.40;;
32094;SDS011;18608;53.688;10.748;2022-12-07T05:12:19;4.30;;;3.90;;
32094;SDS011;18608;53.688;10.748;2022-12-07T05:14:44;5.10;;;4.50;;
32094;SDS011;18608;53.688;10.748;2022-12-07T05:17:10;5.00;;;4.07;;
32094;SDS011;18608;53.688;10.748;2022-12-07T05:19:36;4.77;;;4.27;;
32094;SDS011;18608;53.688;10.748;2022-12-07T05:22:02;4.90;;;3.90;;
32094;SDS011;18608;53.688;10.748;2022-12-07T05:24:27;6.60;;;4.40;;
32094;SDS011;18608;53.688;10.748;2022-12-07T05:26:53;5.20;;;4.73;;
32094;SDS011;18608;53.688;10.748;2022-12-07T05:29:18;5.90;;;4.83;;
32094;SDS011;18608;53.688;10.748;2022-12-07T05:31:44;5.53;;;4.27;;
32094;SDS011;18608;53.688;10.748;2022-12-07T05:34:10;4.23;;;3.50;;
32094;SDS011;18608;53.688;10.748;2022-12-07T05:36:37;9.30;;;5.00;;
32094;SDS011;18608;53.688;10.748;2022-12-07T05:39:02;8.33;;;5.43;;
32094;SDS011;18608;53.688;10.748;2022-12-07T05:41:28;5.07;;;4.17;;
32094;SDS011;18608;53.688;10.748;2022-12-07T05:44:12;8.27;;;4.77;;
32094;SDS011;18608;53.688;10.748;2022-12-07T05:46:38;10.53;;;6.20;;
32094;SDS011;18608;53.688;10.748;2022-12-07T05:49:04;10.83;;;5.33;;
32094;SDS011;18608;53.688;10.748;2022-12-07T05:51:29;8.40;;;6.20;;
32094;SDS011;18608;53.688;10.748;2022-12-07T05:53:55;9.77;;;6.03;;
32094;SDS011;18608;53.688;10.748;2022-12-07T05:56:20;7.80;;;5.90;;
32094;SDS011;18608;53.688;10.748;2022-12-07T05:58:46;10.67;;;6.10;;
32094;SDS011;18608;53.688;10.748;2022-12-07T06:01:30;10.50;;;6.60;;
32094;SDS011;18608;53.688;10.748;2022-12-07T06:03:56;10.03;;;6.30;;
32094;SDS011;18608;53.688;10.748;2022-12-07T06:06:22;12.83;;;6.47;;
32094;SDS011;18608;53.688;10.748;2022-12-07T06:08:47;8.97;;;6.63;;
32094;SDS011;18608;53.688;10.748;2022-12-07T06:11:13;10.80;;;6.43;;
32094;SDS011;18608;53.688;10.748;2022-12-07T06:13:57;9.27;;;7.20;;
32094;SDS011;18608;53.688;10.748;2022-12-07T06:16:22;7.77;;;5.50;;
32094;SDS011;18608;53.688;10.748;2022-12-07T06:18:48;12.00;;;5.13;;
32094;SDS011;18608;53.688;10.748;2022-12-07T06:21:14;9.67;;;6.90;;
32094;SDS011;18608;53.688;10.748;2022-12-07T06:23:39;8.10;;;5.70;;
32094;SDS011;18608;53.688;10.748;2022-12-07T06:26:05;7.67;;;5.00;;
32094;SDS011;18608;53.688;10.748;2022-12-07T06:28:31;6.73;;;4.87;;
32094;SDS011;18608;53.688;10.748;2022-12-07T06:31:00;7.70;;;5.57;;
32094;SDS011;18608;53.688;10.748;2022-12-07T06:33:27;7.53;;;5.13;;
32094;SDS011;18608;53.688;10.748;2022-12-07T06:35:53;9.67;;;5.43;;
32094;SDS011;18608;53.688;10.748;2022-12-07T06:38:20;14.20;;;6.53;;
32094;SDS011;18608;53.688;10.748;2022-12-07T06:40:46;9.60;;;6.20;;
32094;SDS011;18608;53.688;10.748;2022-12-07T06:43:12;13.80;;;6.00;;
32094;SDS011;18608;53.688;10.748;2022-12-07T06:45:37;10.20;;;5.90;;
32094;SDS011;18608;53.688;10.748;2022-12-07T06:48:03;8.60;;;6.13;;
32094;SDS011;18608;53.688;10.748;2022-12-07T06:50:28;8.43;;;6.20;;
32094;SDS011;18608;53.688;10.748;2022-12-07T06:52:54;10.73;;;7.20;;
32094;SDS011;18608;53.688;10.748;2022-12-07T06:55:20;13.40;;;7.07;;
32094;SDS011;18608;53.688;10.748;2022-12-07T06:57:45;19.00;;;6.10;;
32094;SDS011;18608;53.688;10.748;2022-12-07T07:00:11;8.40;;;6.07;;
32094;SDS011;18608;53.688;10.748;2022-12-07T07:02:37;9.17;;;5.63;;
32094;SDS011;18608;53.688;10.748;2022-12-07T07:05:03;8.10;;;5.80;;
32094;SDS011;18608;53.688;10.748;2022-12-07T07:07:28;10.17;;;6.17;;
32094;SDS011;18608;53.688;10.748;2022-12-07T07:09:54;14.00;;;7.07;;
32094;SDS011;18608;53.688;10.748;2022-12-07T07:12:19;12.27;;;6.50;;
32094;SDS011;18608;53.688;10.748;2022-12-07T07:14:45;13.17;;;6.83;;
32094;SDS011;18608;53.688;10.748;2022-12-07T07:17:11;15.00;;;6.53;;
32094;SDS011;18608;53.688;10.748;2022-12-07T07:19:36;13.93;;;7.40;;
32094;SDS011;18608;53.688;10.748;2022-12-07T07:22:02;8.50;;;6.10;;
32094;SDS011;18608;53.688;10.748;2022-12-07T07:24:28;13.07;;;7.10;;
32094;SDS011;18608;53.688;10.748;2022-12-07T07:26:54;13.10;;;6.53;;
32094;SDS011;18608;53.688;10.748;2022-12-07T07:29:20;8.33;;;5.70;;
32094;SDS011;18608;53.688;10.748;2022-12-07T07:31:45;10.00;;;5.67;;
32094;SDS011;18608;53.688;10.748;2022-12-07T07:34:11;17.20;;;7.00;;
32094;SDS011;18608;53.688;10.748;2022-12-07T07:36:37;10.10;;;5.87;;
32094;SDS011;18608;53.688;10.748;2022-12-07T07:39:02;14.63;;;8.27;;
32094;SDS011;18608;53.688;10.748;2022-12-07T07:41:28;11.47;;;5.97;;
32094;SDS011;18608;53.688;10.748;2022-12-07T07:43:54;8.43;;;4.97;;
32094;SDS011;18608;53.688;10.748;2022-12-07T07:46:19;10.80;;;6.10;;
32094;SDS011;18608;53.688;10.748;2022-12-07T07:48:45;15.53;;;6.90;;
32094;SDS011;18608;53.688;10.748;2022-12-07T07:51:11;11.83;;;5.80;;
32094;SDS011;18608;53.688;10.748;2022-12-07T07:53:36;11.27;;;6.20;;
32094;SDS011;18608;53.688;10.748;2022-12-07T07:56:02;12.57;;;6.30;;
32094;SDS011;18608;53.688;10.748;2022-12-07T07:58:28;10.37;;;6.50;;
32094;SDS011;18608;53.688;10.748;2022-12-07T08:00:54;10.83;;;6.60;;
32094;SDS011;18608;53.688;10.748;2022-12-07T08:03:19;6.53;;;4.97;;
32094;SDS011;18608;53.688;10.748;2022-12-07T08:05:45;10.20;;;6.50;;
32094;SDS011;18608;53.688;10.748;2022-12-07T08:08:11;12.97;;;6.97;;
32094;SDS011;18608;53.688;10.748;2022-12-07T08:10:36;10.07;;;6.30;;
32094;SDS011;18608;53.688;10.748;2022-12-07T08:13:02;11.00;;;7.87;;
32094;SDS011;18608;53.688;10.748;2022-12-07T08:15:39;9.67;;;6.50;;
32094;SDS011;18608;53.688;10.748;2022-12-07T08:18:06;7.97;;;5.73;;
32094;SDS011;18608;53.688;10.748;2022-12-07T08:20:33;11.10;;;6.07;;
32094;SDS011;18608;53.688;10.748;2022-12-07T08:22:59;8.53;;;5.77;;
32094;SDS011;18608;53.688;10.748;2022-12-07T08:25:26;6.60;;;4.90;;
32094;SDS011;18608;53.688;10.748;2022-12-07T08:27:52;11.00;;;7.43;;
32094;SDS011;18608;53.688;10.748;2022-12-07T08:30:17;8.63;;;6.60;;
32094;SDS011;18608;53.688;10.748;2022-12-07T08:32:44;8.37;;;5.80;;
32094;SDS011;18608;53.688;10.748;2022-12-07T08:35:10;13.47;;;6.33;;
32094;SDS011;18608;53.688;10.748;2022-12-07T08:37:36;14.23;;;6.00;;
32094;SDS011;18608;53.688;10.748;2022-12-07T08:40:03;7.37;;;4.73;;
32094;SDS011;18608;53.688;10.748;2022-12-07T08:42:32;8.57;;;5.83;;
32094;SDS011;18608;53.688;10.748;2022-12-07T08:45:05;8.83;;;4.50;;
32094;SDS011;18608;53.688;10.748;2022-12-07T08:47:32;8.93;;;5.57;;
32094;SDS011;18608;53.688;10.748;2022-12-07T08:50:00;9.37;;;5.50;;
32094;SDS011;18608;53.688;10.748;2022-12-07T08:52:29;18.47;;;4.93;;
32094;SDS011;18608;53.688;10.748;2022-12-07T08:54:55;10.00;;;5.20;;
32094;SDS011;18608;53.688;10.748;2022-12-07T08:57:21;6.83;;;5.10;;
32094;SDS011;18608;53.688;10.748;2022-12-07T08:59:47;6.83;;;4.83;;
32094;SDS011;18608;53.688;10.748;2022-12-07T09:02:13;7.57;;;4.50;;
32094;SDS011;18608;53.688;10.748;2022-12-07T09:04:38;11.13;;;4.40;;
32094;SDS011;18608;53.688;10.748;2022-12-07T09:07:04;7.27;;;4.30;;
32094;SDS011;18608;53.688;10.748;2022-12-07T09:09:30;5.80;;;3.60;;
32094;SDS011;18608;53.688;10.748;2022-12-07T09:11:55;3.83;;;3.47;;
32094;SDS011;18608;53.688;10.748;2022-12-07T09:14:22;8.13;;;4.20;;
32094;SDS011;18608;53.688;10.748;2022-12-07T09:16:48;10.10;;;4.13;;
32094;SDS011;18608;53.688;10.748;2022-12-07T09:19:13;3.57;;;3.27;;
32094;SDS011;18608;53.688;10.748;2022-12-07T09:21:39;5.20;;;3.10;;
32094;SDS011;18608;53.688;10.748;2022-12-07T09:24:04;4.00;;;2.90;;
32094;SDS011;18608;53.688;10.748;2022-12-07T09:26:30;4.37;;;3.17;;
32094;SDS011;18608;53.688;10.748;2022-12-07T09:28:56;4.93;;;2.53;;
32094;SDS011;18608;53.688;10.748;2022-12-07T09:31:21;5.03;;;2.80;;
32094;SDS011;18608;53.688;10.748;2022-12-07T09:33:53;5.73;;;2.87;;
32094;SDS011;18608;53.688;10.748;2022-12-07T09:36:20;6.43;;;1.90;;
32094;SDS011;18608;53.688;10.748;2022-12-07T09:38:45;2.57;;;1.87;;
32094;SDS011;18608;53.688;10.748;2022-12-07T09:41:11;5.47;;;2.00;;
32094;SDS011;18608;53.688;10.748;2022-12-07T09:43:37;7.53;;;2.87;;
32094;SDS011;18608;53.688;10.748;2022-12-07T09:46:05;3.27;;;1.80;;
32094;SDS011;18608;53.688;10.748;2022-12-07T09:51:02;7.40;;;2.67;;
32094;SDS011;18608;53.688;10.748;2022-12-07T09:53:36;3.90;;;2.50;;
32094;SDS011;18608;53.688;10.748;2022-12-07T09:56:03;12.17;;;2.10;;
32094;SDS011;18608;53.688;10.748;2022-12-07T09:58:30;2.93;;;1.90;;
32094;SDS011;18608;53.688;10.748;2022-12-07T10:03:50;4.43;;;1.97;;
32094;SDS011;18608;53.688;10.748;2022-12-07T10:06:17;2.40;;;1.83;;
32094;SDS011;18608;53.688;10.748;2022-12-07T10:08:44;2.90;;;1.20;;
32094;SDS011;18608;53.688;10.748;2022-12-07T10:11:10;4.70;;;1.60;;
32094;SDS011;18608;53.688;10.748;2022-12-07T10:13:41;7.83;;;1.60;;
32094;SDS011;18608;53.688;10.748;2022-12-07T10:19:27;1.93;;;1.30;;
32094;SDS011;18608;53.688;10.748;2022-12-07T10:24:26;4.30;;;1.87;;
32094;SDS011;18608;53.688;10.748;2022-12-07T10:26:52;2.70;;;2.20;;
32094;SDS011;18608;53.688;10.748;2022-12-07T10:29:22;15.10;;;2.37;;
32094;SDS011;18608;53.688;10.748;2022-12-07T10:34:40;8.50;;;1.40;;
32094;SDS011;18608;53.688;10.748;2022-12-07T10:39:44;6.40;;;1.87;;
32094;SDS011;18608;53.688;10.748;2022-12-07T10:42:25;3.03;;;1.50;;
32094;SDS011;18608;53.688;10.748;2022-12-07T10:47:36;1.43;;;1.20;;
32094;SDS011;18608;53.688;10.748;2022-12-07T11:11:43;7.40;;;1.83;;
32094;SDS011;18608;53.688;10.748;2022-12-07T11:14:25;2.20;;;1.30;;
32094;SDS011;18608;53.688;10.748;2022-12-07T11:17:20;2.40;;;1.47;;
32094;SDS011;18608;53.688;10.748;2022-12-07T11:19:51;3.53;;;1.67;;
32094;SDS011;18608;53.688;10.748;2022-12-07T11:22:51;2.80;;;1.53;;
32094;SDS011;18608;53.688;10.748;2022-12-07T11:25:31;4.20;;;1.50;;
32094;SDS011;18608;53.688;10.748;2022-12-07T11:28:07;9.53;;;1.60;;
32094;SDS011;18608;53.688;10.748;2022-12-07T11:33:49;4.50;;;2.00;;
32094;SDS011;18608;53.688;10.748;2022-12-07T11:36:35;5.70;;;1.00;;
32094;SDS011;18608;53.688;10.748;2022-12-07T11:39:35;1.23;;;1.20;;
32094;SDS011;18608;53.688;10.748;2022-12-07T11:42:01;2.90;;;1.23;;
32094;SDS011;18608;53.688;10.748;2022-12-07T11:47:38;1.40;;;1.20;;
32094;SDS011;18608;53.688;10.748;2022-12-07T11:58:13;7.03;;;1.37;;
32094;SDS011;18608;53.688;10.748;2022-12-07T12:03:40;4.60;;;1.20;;
32094;SDS011;18608;53.688;10.748;2022-12-07T12:06:10;4.50;;;1.43;;
32094;SDS011;18608;53.688;10.748;2022-12-07T12:08:39;2.90;;;1.20;;
32094;SDS011;18608;53.688;10.748;2022-12-07T12:11:21;2.60;;;1.20;;
32094;SDS011;18608;53.688;10.748;2022-12-07T12:13:57;6.30;;;1.43;;
32094;SDS011;18608;53.688;10.748;2022-12-07T12:21:46;4.50;;;1.80;;
32094;SDS011;18608;53.688;10.748;2022-12-07T12:24:15;9.43;;;1.50;;
32094;SDS011;18608;53.688;10.748;2022-12-07T12:26:52;9.10;;;1.50;;
32094;SDS011;18608;53.688;10.748;2022-12-07T12:29:38;5.80;;;1.57;;
32094;SDS011;18608;53.688;10.748;2022-12-07T12:32:16;10.80;;;1.50;;
32094;SDS011;18608;53.688;10.748;2022-12-07T12:40:40;5.17;;;1.30;;
32094;SDS011;18608;53.688;10.748;2022-12-07T12:42:50;2.20;;;0.97;;
32094;SDS011;18608;53.688;10.748;2022-12-07T12:45:22;6.40;;;1.47;;
32094;SDS011;18608;53.688;10.748;2022-12-07T12:48:01;2.90;;;1.10;;
32094;SDS011;18608;53.688;10.748;2022-12-07T12:55:43;1.57;;;1.10;;
32094;SDS011;18608;53.688;10.748;2022-12-07T12:58:25;3.13;;;1.17;;
32094;SDS011;18608;53.688;10.748;2022-12-07T13:03:59;2.50;;;0.97;;
32094;SDS011;18608;53.688;10.748;2022-12-07T13:06:32;4.23;;;0.80;;
32094;SDS011;18608;53.688;10.748;2022-12-07T13:09:01;3.47;;;0.87;;
32094;SDS011;18608;53.688;10.748;2022-12-07T13:17:07;4.30;;;0.90;;
32094;SDS011;18608;53.688;10.748;2022-12-07T13:22:51;8.57;;;1.43;;
32094;SDS011;18608;53.688;10.748;2022-12-07T13:27:57;4.63;;;1.20;;
32094;SDS011;18608;53.688;10.748;2022-12-07T13:30:26;8.40;;;2.47;;
32094;SDS011;18608;53.688;10.748;2022-12-07T13:32:54;1.37;;;1.17;;
32094;SDS011;18608;53.688;10.748;2022-12-07T13:35:33;4.93;;;1.00;;
32094;SDS011;18608;53.688;10.748;2022-12-07T13:38:16;0.97;;;0.80;;
32094;SDS011;18608;53.688;10.748;2022-12-07T13:40:59;2.00;;;0.70;;
32094;SDS011;18608;53.688;10.748;2022-12-07T13:43:52;2.40;;;0.97;;
32094;SDS011;18608;53.688;10.748;2022-12-07T13:46:35;2.20;;;0.80;;
32094;SDS011;18608;53.688;10.748;2022-12-07T13:49:26;2.20;;;0.67;;
32094;SDS011;18608;53.688;10.748;2022-12-07T13:51:53;4.33;;;0.80;;
32094;SDS011;18608;53.688;10.748;2022-12-07T13:54:20;5.47;;;0.90;;
32094;SDS011;18608;53.688;10.748;2022-12-07T13:56:47;5.30;;;0.90;;
32094;SDS011;18608;53.688;10.748;2022-12-07T13:59:26;0.63;;;0.63;;
32094;SDS011;18608;53.688;10.748;2022-12-07T14:01:52;4.33;;;0.73;;
32094;SDS011;18608;53.688;10.748;2022-12-07T14:04:19;8.43;;;1.07;;
32094;SDS011;18608;53.688;10.748;2022-12-07T14:06:51;2.10;;;0.70;;
32094;SDS011;18608;53.688;10.748;2022-12-07T14:09:26;2.30;;;0.70;;
32094;SDS011;18608;53.688;10.748;2022-12-07T14:11:53;2.73;;;1.10;;
32094;SDS011;18608;53.688;10.748;2022-12-07T14:14:25;1.87;;;0.80;;
32094;SDS011;18608;53.688;10.748;2022-12-07T14:17:15;2.20;;;0.83;;
32094;SDS011;18608;53.688;10.748;2022-12-07T14:19:52;0.67;;;0.67;;
32094;SDS011;18608;53.688;10.748;2022-12-07T14:24:57;3.20;;;1.03;;
32094;SDS011;18608;53.688;10.748;2022-12-07T14:27:24;2.50;;;1.13;;
32094;SDS011;18608;53.688;10.748;2022-12-07T14:29:55;0.70;;;0.70;;
32094;SDS011;18608;53.688;10.748;2022-12-07T14:32:25;2.90;;;0.90;;
32094;SDS011;18608;53.688;10.748;2022-12-07T14:37:22;1.23;;;1.07;;
32094;SDS011;18608;53.688;10.748;2022-12-07T14:39:48;0.60;;;0.60;;
32094;SDS011;18608;53.688;10.748;2022-12-07T14:42:14;2.83;;;0.80;;
32094;SDS011;18608;53.688;10.748;2022-12-07T14:44:40;2.20;;;0.60;;
32094;SDS011;18608;53.688;10.748;2022-12-07T14:47:08;3.00;;;0.90;;
32094;SDS011;18608;53.688;10.748;2022-12-07T14:49:36;3.50;;;0.63;;
32094;SDS011;18608;53.688;10.748;2022-12-07T14:52:02;2.20;;;0.90;;
32094;SDS011;18608;53.688;10.748;2022-12-07T14:54:30;1.57;;;0.80;;
32094;SDS011;18608;53.688;10.748;2022-12-07T14:56:57;1.43;;;1.33;;
32094;SDS011;18608;53.688;10.748;2022-12-07T14:59:23;2.77;;;0.83;;
32094;SDS011;18608;53.688;10.748;2022-12-07T15:01:49;2.17;;;0.77;;
32094;SDS011;18608;53.688;10.748;2022-12-07T15:04:15;2.60;;;0.57;;
32094;SDS011;18608;53.688;10.748;2022-12-07T15:06:40;0.90;;;0.90;;
32094;SDS011;18608;53.688;10.748;2022-12-07T15:09:09;1.70;;;0.70;;
32094;SDS011;18608;53.688;10.748;2022-12-07T15:11:36;1.90;;;0.67;;
32094;SDS011;18608;53.688;10.748;2022-12-07T15:14:01;2.60;;;0.90;;
32094;SDS011;18608;53.688;10.748;2022-12-07T15:16:33;1.00;;;0.60;;
32094;SDS011;18608;53.688;10.748;2022-12-07T15:18:59;6.43;;;0.80;;
32094;SDS011;18608;53.688;10.748;2022-12-07T15:21:25;0.90;;;0.70;;
32094;SDS011;18608;53.688;10.748;2022-12-07T15:23:51;0.73;;;0.73;;
32094;SDS011;18608;53.688;10.748;2022-12-07T15:26:16;0.80;;;0.80;;
32094;SDS011;18608;53.688;10.748;2022-12-07T15:28:42;0.77;;;0.70;;
32094;SDS011;18608;53.688;10.748;2022-12-07T15:31:14;4.27;;;0.80;;
32094;SDS011;18608;53.688;10.748;2022-12-07T15:33:41;2.60;;;0.70;;
32094;SDS011;18608;53.688;10.748;2022-12-07T15:36:08;4.00;;;0.67;;
32094;SDS011;18608;53.688;10.748;2022-12-07T15:38:42;1.93;;;1.23;;
32094;SDS011;18608;53.688;10.748;2022-12-07T15:41:08;1.37;;;0.80;;
32094;SDS011;18608;53.688;10.748;2022-12-07T15:43:33;0.60;;;0.60;;
32094;SDS011;18608;53.688;10.748;2022-12-07T15:46:19;0.80;;;0.80;;
32094;SDS011;18608;53.688;10.748;2022-12-07T15:48:45;4.63;;;0.90;;
32094;SDS011;18608;53.688;10.748;2022-12-07T15:51:11;2.47;;;0.70;;
32094;SDS011;18608;53.688;10.748;2022-12-07T15:53:36;1.83;;;0.73;;
32094;SDS011;18608;53.688;10.748;2022-12-07T15:56:05;2.00;;;0.90;;
32094;SDS011;18608;53.688;10.748;2022-12-07T15:58:33;3.70;;;1.03;;
32094;SDS011;18608;53.688;10.748;2022-12-07T16:00:58;1.40;;;0.87;;
32094;SDS011;18608;53.688;10.748;2022-12-07T16:03:29;0.80;;;0.80;;
32094;SDS011;18608;53.688;10.748;2022-12-07T16:05:59;1.10;;;1.00;;
32094;SDS011;18608;53.688;10.748;2022-12-07T16:08:25;4.13;;;0.80;;
32094;SDS011;18608;53.688;10.748;2022-12-07T16:10:50;5.00;;;0.70;;
32094;SDS011;18608;53.688;10.748;2022-12-07T16:13:16;1.27;;;0.70;;
32094;SDS011;18608;53.688;10.748;2022-12-07T16:15:44;1.10;;;0.70;;
32094;SDS011;18608;53.688;10.748;2022-12-07T16:18:10;0.80;;;0.80;;
32094;SDS011;18608;53.688;10.748;2022-12-07T16:20:35;2.73;;;0.70;;
32094;SDS011;18608;53.688;10.748;2022-12-07T16:23:01;16.07;;;0.90;;
32094;SDS011;18608;53.688;10.748;2022-12-07T16:25:27;2.87;;;0.80;;
32094;SDS011;18608;53.688;10.748;2022-12-07T16:27:52;1.63;;;1.00;;
32094;SDS011;18608;53.688;10.748;2022-12-07T16:30:18;1.00;;;0.90;;
32094;SDS011;18608;53.688;10.748;2022-12-07T16:32:44;1.30;;;0.80;;
32094;SDS011;18608;53.688;10.748;2022-12-07T16:35:10;3.23;;;0.80;;
32094;SDS011;18608;53.688;10.748;2022-12-07T16:37:37;3.80;;;1.30;;
32094;SDS011;18608;53.688;10.748;2022-12-07T16:40:03;2.03;;;1.20;;
32094;SDS011;18608;53.688;10.748;2022-12-07T16:42:32;3.50;;;1.20;;
32094;SDS011;18608;53.688;10.748;2022-12-07T16:44:59;3.73;;;0.80;;
32094;SDS011;18608;53.688;10.748;2022-12-07T16:47:25;1.30;;;1.20;;